East Wenona, Illinois
Current Conditions -  °F | °C
As of 5:35 PM on Sunday 21 Dec 2014 (Local Time) from KC75 Reporting Station
Scattered Clouds Scattered Clouds  
Wind Chill: -3°   Ceiling: Unl
Heat Index:   Visibility: 10mi
Dew Point: -1°   Wind: 14mph
Humidity: 81%   Direction: 160°SSE
Pressure: 30.03"   Gusts: NA
Location:  41.0632°N, 89.0208°W
Report Text: KC75 212335Z AUTO 16012KT 10SM SCT033 SCT100 02/M01 A3003 RMK AO2 T00161013
Loading
Personal Weather Stations






























Interactive Weather Map New forecast layout! Learn more

10-Day Weather Forecast

Advertisements
Track Severe Weather on mobile